Cisco, California
Current Conditions -  °F | °C
As of 7:52 AM on Wednesday 26 Nov 2014 (Local Time) from KBLU Reporting Station
Clear Clear  
Wind Chill: 60°   Ceiling: Unl
Heat Index: 60°   Visibility: 10mi
Dew Point: 17°   Wind: 3mph
Humidity: 19%   Direction: 110°ESE
Pressure: 30.45"   Gusts: NA
Location:  39.4261°N, 120.475°W
Report Text: KBLU 261552Z AUTO 11003KT 10SM CLR 16/M08 A3045 RMK AO2 SLP253 T01561083
Loading
Personal Weather Stations






























Interactive Weather Map New forecast layout! Learn more

10-Day Weather Forecast

Advertisements
Track Severe Weather on mobile